Time;durP1;ratioP1;P1;durP2;ratioP2;P2;SDS_P1;SDS_P2;PMS_P1;PMS_P2;Temp;Humidity;BMP_temperature;BMP_pressure;BME280_temperature;BME280_humidity;BME280_pressure;Samples;Min_cycle;Max_cycle;Signal;HPM_P1;HPM_P2
2021/04/04 00:01:05;;;;;;;2.75;1.50;;;21.20;55.90;;;;;;5082194;28;20039;-38
2021/04/04 00:03:32;;;;;;;4.28;1.80;;;21.20;55.90;;;;;;5081078;28;20063;-44
2021/04/04 00:05:58;;;;;;;2.47;1.63;;;21.20;56.00;;;;;;5082559;28;20036;-46
2021/04/04 00:08:23;;;;;;;3.45;2.38;;;21.10;55.90;;;;;;5081821;28;20139;-43
2021/04/04 00:10:49;;;;;;;2.03;1.83;;;21.10;55.90;;;;;;5082206;28;20032;-41
2021/04/04 00:13:14;;;;;;;1.80;1.70;;;21.00;56.80;;;;;;5080324;28;20421;-39
2021/04/04 00:15:41;;;;;;;1.95;1.65;;;21.10;56.00;;;;;;5081997;28;20032;-43
2021/04/04 00:18:07;;;;;;;2.03;1.40;;;21.10;55.90;;;;;;5081500;28;20095;-40
2021/04/04 00:20:33;;;;;;;1.83;1.73;;;21.10;55.80;;;;;;5081382;28;20114;-43
2021/04/04 00:22:58;;;;;;;1.60;1.38;;;21.10;55.60;;;;;;5080364;28;20150;-49
2021/04/04 00:25:24;;;;;;;2.30;1.50;;;21.20;55.60;;;;;;5080697;28;20099;-49
2021/04/04 00:27:50;;;;;;;1.50;1.40;;;21.20;55.60;;;;;;5081958;28;20081;-41
2021/04/04 00:30:17;;;;;;;1.90;1.80;;;21.20;55.40;;;;;;5081840;28;20648;-45
2021/04/04 00:32:43;;;;;;;1.60;1.50;;;21.20;55.40;;;;;;5080134;28;20075;-46
2021/04/04 00:35:13;;;;;;;1.90;1.73;;;21.20;55.40;;;;;;5081977;28;20107;-46
2021/04/04 00:37:39;;;;;;;1.60;1.50;;;21.20;55.40;;;;;;5081904;28;20035;-47
2021/04/04 00:40:12;;;;;;;1.60;1.50;;;21.20;55.30;;;;;;5081366;28;20028;-43
2021/04/04 00:42:38;;;;;;;1.60;1.50;;;21.20;55.40;;;;;;5080837;28;20500;-48
2021/04/04 00:45:09;;;;;;;1.30;1.20;;;21.20;55.40;;;;;;5081487;28;20036;-50
2021/04/04 00:47:35;;;;;;;2.65;1.85;;;21.20;55.40;;;;;;5080836;28;20096;-47
2021/04/04 00:50:01;;;;;;;1.80;1.70;;;21.20;55.30;;;;;;5081599;28;20028;-41
2021/04/04 00:52:26;;;;;;;2.03;1.30;;;21.20;55.40;;;;;;5079209;28;20036;-37
2021/04/04 00:54:52;;;;;;;1.70;1.60;;;21.20;55.20;;;;;;5081958;28;20539;-46
2021/04/04 00:57:17;;;;;;;2.45;1.52;;;21.20;55.30;;;;;;5082211;28;20040;-47
2021/04/04 00:59:43;;;;;;;1.63;1.40;;;21.30;55.20;;;;;;5080284;28;20111;-43
2021/04/04 01:02:14;;;;;;;2.15;1.50;;;21.20;55.10;;;;;;5079393;28;20074;-44
2021/04/04 01:04:41;;;;;;;1.73;1.63;;;21.10;55.20;;;;;;5080341;28;20396;-44
2021/04/04 01:07:06;;;;;;;1.98;1.63;;;21.10;55.90;;;;;;5081597;28;20035;-45
2021/04/04 01:09:32;;;;;;;1.92;1.80;;;21.20;55.30;;;;;;5081266;28;20024;-43
2021/04/04 01:12:22;;;;;;;1.50;1.40;;;21.10;55.10;;;;;;5079687;28;20032;-42
2021/04/04 01:15:04;;;;;;;1.52;1.40;;;21.00;55.50;;;;;;5079510;28;20039;-47
2021/04/04 01:17:30;;;;;;;1.60;1.48;;;21.00;55.50;;;;;;5080211;28;20426;-48
2021/04/04 01:20:06;;;;;;;1.50;1.40;;;21.10;55.50;;;;;;5079980;28;20031;-44
2021/04/04 01:22:41;;;;;;;2.05;1.60;;;21.10;55.40;;;;;;5079775;28;20036;-43
2021/04/04 01:25:07;;;;;;;1.50;1.40;;;21.20;55.30;;;;;;5080841;28;20043;-32
2021/04/04 01:27:44;;;;;;;1.70;1.60;;;21.20;55.20;;;;;;5081713;28;20036;-45
2021/04/04 01:30:13;;;;;;;1.40;1.30;;;21.10;55.30;;;;;;5080902;28;20032;-50
2021/04/04 01:32:44;;;;;;;1.30;1.20;;;21.10;55.30;;;;;;5077795;28;20953;-43
2021/04/04 01:35:13;;;;;;;1.42;1.17;;;21.10;55.20;;;;;;5079438;28;20093;-45
2021/04/04 01:37:39;;;;;;;1.25;1.15;;;21.10;55.40;;;;;;5080786;28;20032;-45
2021/04/04 01:40:06;;;;;;;2.10;1.45;;;21.10;55.40;;;;;;5079884;28;20606;-46
2021/04/04 01:42:32;;;;;;;1.40;1.30;;;21.10;55.40;;;;;;5078550;28;20032;-45
2021/04/04 01:44:58;;;;;;;1.40;1.30;;;21.10;55.60;;;;;;5080928;28;20040;-42
2021/04/04 01:47:23;;;;;;;1.27;1.17;;;21.10;55.40;;;;;;5079474;28;20092;-44
2021/04/04 01:49:51;;;;;;;1.48;1.38;;;21.10;55.40;;;;;;5079518;28;20028;-44
2021/04/04 01:52:16;;;;;;;1.15;1.10;;;21.10;55.50;;;;;;5077910;28;20604;-49
2021/04/04 01:54:42;;;;;;;1.48;1.48;;;21.10;55.40;;;;;;5079811;28;20027;-46
2021/04/04 01:57:07;;;;;;;3.50;1.80;;;21.10;55.30;;;;;;5079594;28;20040;-46
2021/04/04 01:59:33;;;;;;;1.48;1.35;;;21.10;56.00;;;;;;5079134;28;20020;-43
2021/04/04 02:01:59;;;;;;;1.70;1.60;;;21.10;55.20;;;;;;5077781;28;20028;-48
2021/04/04 02:04:24;;;;;;;1.35;1.15;;;21.10;55.30;;;;;;5080632;28;20032;-44
2021/04/04 02:06:51;;;;;;;1.92;1.30;;;21.10;55.10;;;;;;5079877;28;20402;-38
2021/04/04 02:09:16;;;;;;;1.50;1.38;;;21.10;55.20;;;;;;5079284;28;20036;-44
2021/04/04 02:11:42;;;;;;;1.40;1.30;;;20.90;55.40;;;;;;5078982;28;20587;-45
2021/04/04 02:14:11;;;;;;;1.63;1.30;;;21.00;55.50;;;;;;5077624;28;20039;-46
2021/04/04 02:16:39;;;;;;;1.67;1.58;;;21.00;55.40;;;;;;5078652;28;20518;-48
2021/04/04 02:19:05;;;;;;;1.80;1.70;;;21.00;55.40;;;;;;5083545;28;20046;-44
2021/04/04 02:21:31;;;;;;;1.10;1.00;;;21.00;55.20;;;;;;5083612;28;20036;-37
2021/04/04 02:23:59;;;;;;;1.50;1.40;;;21.00;55.20;;;;;;5081274;28;20122;-44
2021/04/04 02:26:24;;;;;;;1.27;1.20;;;21.00;55.90;;;;;;5082263;28;20028;-38
2021/04/04 02:28:50;;;;;;;1.35;1.15;;;21.00;55.20;;;;;;5082117;28;20622;-44
2021/04/04 02:31:16;;;;;;;1.20;1.10;;;21.00;54.90;;;;;;5084263;28;20032;-47
2021/04/04 02:33:50;;;;;;;2.15;1.80;;;21.00;55.00;;;;;;5081035;28;20490;-45
2021/04/04 02:36:16;;;;;;;1.20;1.20;;;20.90;54.80;;;;;;5083058;28;20036;-44
2021/04/04 02:38:47;;;;;;;1.40;1.30;;;20.80;55.50;;;;;;5082533;28;20085;-48
2021/04/04 02:41:12;;;;;;;1.40;1.30;;;20.80;55.40;;;;;;5083659;28;20036;-46
2021/04/04 02:43:39;;;;;;;1.42;1.33;;;20.90;55.40;;;;;;5063680;28;20032;-45
2021/04/04 02:46:07;;;;;;;1.60;1.50;;;20.90;55.40;;;;;;5082279;28;20029;-45
2021/04/04 02:49:00;;;;;;;1.50;1.40;;;20.90;55.40;;;;;;5108298;27;20132;-45
2021/04/04 02:51:40;;;;;;;2.05;1.60;;;20.90;54.20;;;;;;5081275;28;20036;-45
2021/04/04 02:54:06;;;;;;;2.00;1.80;;;20.60;54.70;;;;;;5079179;28;20031;-48
2021/04/04 02:56:36;;;;;;;2.50;1.88;;;20.50;55.80;;;;;;5081481;28;20032;-44
2021/04/04 02:59:02;;;;;;;1.85;1.75;;;20.50;56.10;;;;;;5082190;28;20023;-46
2021/04/04 03:01:28;;;;;;;3.15;2.25;;;20.40;56.30;;;;;;5082238;28;20512;-49
2021/04/04 03:03:54;;;;;;;1.80;1.70;;;20.40;56.00;;;;;;5078862;28;20059;-46
2021/04/04 03:06:19;;;;;;;2.28;2.00;;;20.40;56.40;;;;;;5082466;28;20123;-39
2021/04/04 03:08:48;;;;;;;1.77;1.67;;;20.40;56.50;;;;;;5082700;28;20040;-44
2021/04/04 03:11:15;;;;;;;2.85;1.70;;;20.40;56.50;;;;;;5082983;28;20102;-43
2021/04/04 03:13:43;;;;;;;2.65;1.83;;;20.40;56.50;;;;;;5096168;27;20047;-45
2021/04/04 03:16:08;;;;;;;3.47;1.95;;;20.40;56.70;;;;;;5082135;28;20024;-48
2021/04/04 03:18:34;;;;;;;2.17;1.67;;;20.40;56.20;;;;;;5082220;28;20468;-43
2021/04/04 03:21:03;;;;;;;1.77;1.60;;;20.40;56.50;;;;;;5081615;28;20118;-33
2021/04/04 03:23:29;;;;;;;1.60;1.50;;;20.40;56.00;;;;;;5080790;28;20039;-41
2021/04/04 03:25:54;;;;;;;1.90;1.80;;;20.40;56.30;;;;;;5081375;28;20028;-40
2021/04/04 03:28:20;;;;;;;2.08;1.98;;;20.50;56.30;;;;;;5064410;28;20051;-45
2021/04/04 03:30:46;;;;;;;1.63;1.52;;;20.50;56.20;;;;;;5081761;28;20035;-47
2021/04/04 03:33:20;;;;;;;1.33;1.23;;;20.50;56.30;;;;;;5080384;28;20595;-45
2021/04/04 03:35:46;;;;;;;1.63;1.50;;;20.60;56.20;;;;;;5082309;28;20020;-46
2021/04/04 03:38:13;;;;;;;1.70;1.50;;;20.60;56.00;;;;;;5082681;28;20044;-50
2021/04/04 03:40:39;;;;;;;1.30;1.20;;;20.60;56.00;;;;;;5081588;28;20032;-33
2021/04/04 03:43:15;;;;;;;1.50;1.40;;;20.70;56.00;;;;;;5079986;28;20085;-51
2021/04/04 03:45:41;;;;;;;1.98;1.50;;;20.60;56.10;;;;;;5098995;28;20035;-41
2021/04/04 03:48:06;;;;;;;1.35;1.33;;;20.70;56.00;;;;;;5081115;28;20047;-45
2021/04/04 03:50:36;;;;;;;1.67;1.58;;;20.70;55.90;;;;;;5082799;28;20028;-33
2021/04/04 03:53:02;;;;;;;1.35;1.25;;;20.80;55.80;;;;;;5079705;28;20032;-50
2021/04/04 03:55:28;;;;;;;1.40;1.30;;;20.80;55.40;;;;;;5081109;28;20117;-41
2021/04/04 03:57:54;;;;;;;2.25;1.63;;;20.80;55.60;;;;;;5082007;28;20032;-50
2021/04/04 04:00:21;;;;;;;1.60;1.50;;;20.80;55.60;;;;;;5080683;28;20028;-46
2021/04/04 04:02:48;;;;;;;1.60;1.35;;;20.70;55.50;;;;;;5079237;28;20134;-44
2021/04/04 04:05:14;;;;;;;1.50;1.40;;;20.70;55.60;;;;;;5082179;28;20172;-38
2021/04/04 04:07:40;;;;;;;1.17;1.17;;;20.70;55.40;;;;;;5081095;28;20039;-47
2021/04/04 04:10:06;;;;;;;1.60;1.50;;;20.70;55.80;;;;;;5080828;28;20028;-45
2021/04/04 04:12:32;;;;;;;1.90;1.80;;;20.80;55.70;;;;;;5096915;28;20032;-43
2021/04/04 04:14:58;;;;;;;1.50;1.40;;;20.90;55.30;;;;;;5081274;28;20039;-44
2021/04/04 04:17:26;;;;;;;1.33;1.23;;;20.90;55.20;;;;;;5079792;28;20054;-49
2021/04/04 04:19:52;;;;;;;1.10;1.10;;;20.90;55.00;;;;;;5080921;28;20501;-50
2021/04/04 04:22:18;;;;;;;1.45;1.35;;;21.00;55.00;;;;;;5078612;28;20036;-49
2021/04/04 04:24:50;;;;;;;1.30;1.20;;;20.90;55.20;;;;;;5080060;28;20035;-48
2021/04/04 04:27:16;;;;;;;1.33;1.30;;;20.90;55.10;;;;;;5079835;28;20123;-46
2021/04/04 04:29:44;;;;;;;1.50;1.40;;;20.90;55.20;;;;;;5080179;28;20474;-44
2021/04/04 04:32:10;;;;;;;1.98;1.50;;;20.90;54.90;;;;;;5078584;28;20118;-44
2021/04/04 04:34:35;;;;;;;1.40;1.30;;;20.90;55.10;;;;;;5080838;28;20036;-41
2021/04/04 04:37:01;;;;;;;1.17;1.17;;;20.80;55.10;;;;;;5081454;28;20035;-41
2021/04/04 04:39:26;;;;;;;1.45;1.35;;;20.90;55.20;;;;;;5080032;28;20726;-42
2021/04/04 04:41:52;;;;;;;1.30;1.17;;;20.90;55.30;;;;;;5078161;28;20043;-37
2021/04/04 04:44:24;;;;;;;1.55;1.45;;;21.00;55.10;;;;;;5080137;28;21259;-42
2021/04/04 04:46:49;;;;;;;1.13;1.08;;;21.00;55.00;;;;;;5079294;28;20040;-44
2021/04/04 04:49:15;;;;;;;1.50;1.40;;;20.90;55.70;;;;;;5079428;28;20032;-50
2021/04/04 04:51:40;;;;;;;1.50;1.40;;;20.80;55.00;;;;;;5079426;28;20428;-42
2021/04/04 04:54:06;;;;;;;1.33;1.33;;;20.90;54.80;;;;;;5078168;28;20028;-42
2021/04/04 04:56:32;;;;;;;1.50;1.40;;;20.80;55.00;;;;;;5080378;28;20028;-45
2021/04/04 04:58:59;;;;;;;1.60;1.50;;;20.90;55.10;;;;;;5078909;28;20035;-36
2021/04/04 05:01:27;;;;;;;1.50;1.40;;;20.90;55.10;;;;;;5079490;28;20036;-42
2021/04/04 05:03:53;;;;;;;1.70;1.60;;;20.80;55.10;;;;;;5079503;28;20035;-38
2021/04/04 05:06:19;;;;;;;1.50;1.40;;;20.80;55.10;;;;;;5078773;28;20032;-43
2021/04/04 05:08:45;;;;;;;1.50;1.40;;;20.90;55.10;;;;;;5078388;28;20040;-46
2021/04/04 05:11:15;;;;;;;1.52;1.42;;;20.90;54.90;;;;;;5080202;28;20039;-45
2021/04/04 05:13:41;;;;;;;1.75;1.65;;;20.90;54.80;;;;;;5111930;27;20035;-43
2021/04/04 05:16:08;;;;;;;1.50;1.40;;;20.80;54.70;;;;;;5079837;28;20024;-46
2021/04/04 05:18:34;;;;;;;1.52;1.42;;;20.80;54.90;;;;;;5080252;28;20043;-45
2021/04/04 05:21:00;;;;;;;1.80;1.70;;;20.80;54.90;;;;;;5079678;28;20082;-48
2021/04/04 05:23:26;;;;;;;1.25;1.15;;;20.80;55.10;;;;;;5077493;28;20099;-48
2021/04/04 05:25:52;;;;;;;1.80;1.70;;;20.80;55.00;;;;;;5078723;28;20123;-44
2021/04/04 05:28:18;;;;;;;1.75;1.65;;;20.80;55.00;;;;;;5077646;28;20117;-42
2021/04/04 05:30:44;;;;;;;1.70;1.60;;;20.80;55.00;;;;;;5080252;28;20024;-44
2021/04/04 05:33:09;;;;;;;1.35;1.25;;;20.80;54.90;;;;;;5077929;28;20047;-47
2021/04/04 05:35:39;;;;;;;1.70;1.60;;;20.80;54.90;;;;;;5078295;28;20113;-46
2021/04/04 05:38:06;;;;;;;1.50;1.38;;;20.70;55.00;;;;;;5080550;28;20039;-46
2021/04/04 05:40:31;;;;;;;1.48;1.38;;;20.80;55.00;;;;;;5079836;28;20032;-44
2021/04/04 05:42:59;;;;;;;1.40;1.30;;;20.70;54.80;;;;;;5079172;28;20513;-43
2021/04/04 05:45:29;;;;;;;1.50;1.40;;;20.80;54.90;;;;;;5095441;28;20088;-44
2021/04/04 05:48:20;;;;;;;1.35;1.20;;;20.70;55.00;;;;;;5078168;28;20036;-43
2021/04/04 05:50:55;;;;;;;1.60;1.50;;;20.70;55.10;;;;;;5079376;28;20058;-45
2021/04/04 05:54:08;;;;;;;2.00;1.33;;;20.70;55.00;;;;;;5081753;28;20040;-43
2021/04/04 05:56:38;;;;;;;1.63;1.50;;;20.70;54.90;;;;;;5078302;28;20123;-48
2021/04/04 05:59:04;;;;;;;1.48;1.38;;;20.70;55.50;;;;;;5099416;28;20032;-44
2021/04/04 06:01:33;;;;;;;1.30;1.20;;;20.70;54.80;;;;;;5083158;28;20071;-44
2021/04/04 06:04:35;;;;;;;1.60;1.50;;;20.70;55.00;;;;;;5082769;28;20040;-46
2021/04/04 06:07:23;;;;;;;1.38;1.13;;;20.60;55.00;;;;;;5084590;28;20440;-42
2021/04/04 06:10:05;;;;;;;1.35;1.25;;;20.60;55.10;;;;;;5084494;28;20412;-46
2021/04/04 06:13:01;;;;;;;1.27;1.17;;;20.70;54.80;;;;;;5083695;28;20580;-39
2021/04/04 06:15:38;;;;;;;1.30;1.20;;;20.60;54.90;;;;;;5082942;28;20051;-45
2021/04/04 06:18:13;;;;;;;1.33;1.23;;;20.60;55.10;;;;;;5081692;28;20044;-47
2021/04/04 06:20:57;;;;;;;1.50;1.40;;;20.60;55.00;;;;;;5082954;28;20505;-38
2021/04/04 06:23:31;;;;;;;1.50;1.40;;;20.60;54.90;;;;;;5079960;28;20035;-44
2021/04/04 06:26:13;;;;;;;1.30;1.17;;;20.60;55.10;;;;;;5081331;28;20689;-49
2021/04/04 06:28:55;;;;;;;1.27;1.17;;;20.60;55.60;;;;;;5080618;28;20126;-44
2021/04/04 06:32:01;;;;;;;1.20;1.10;;;20.60;55.10;;;;;;5083301;28;20035;-43
2021/04/04 06:34:54;;;;;;;1.25;1.20;;;20.60;55.10;;;;;;5082429;28;20034;-46
2021/04/04 06:37:44;;;;;;;1.70;1.60;;;20.60;55.20;;;;;;5080070;28;20051;-47
2021/04/04 06:40:14;;;;;;;1.35;1.25;;;20.50;55.20;;;;;;5083360;28;20031;-44
2021/04/04 06:43:02;;;;;;;1.90;1.80;;;20.30;55.10;;;;;;5080227;28;20020;-43
2021/04/04 06:46:00;;;;;;;1.63;1.45;;;20.10;56.10;;;;;;5082045;28;20028;-45
2021/04/04 06:48:47;;;;;;;1.75;1.58;;;20.00;56.20;;;;;;5066713;28;20040;-49
2021/04/04 06:51:34;;;;;;;1.60;1.50;;;20.00;56.30;;;;;;5082128;28;20093;-39
2021/04/04 06:54:00;;;;;;;1.60;1.50;;;19.90;56.10;;;;;;5080705;28;20557;-49
2021/04/04 06:56:41;;;;;;;1.60;1.50;;;19.90;56.20;;;;;;5082750;28;20032;-46
2021/04/04 06:59:18;;;;;;;4.53;1.90;;;19.90;56.20;;;;;;5080707;28;20038;-38
2021/04/04 07:01:48;;;;;;;1.70;1.60;;;19.90;56.30;;;;;;5081171;28;20040;-46
2021/04/04 07:04:27;;;;;;;1.75;1.65;;;19.80;56.30;;;;;;5078619;28;20031;-47
2021/04/04 07:07:30;;;;;;;2.75;1.90;;;19.90;56.10;;;;;;5082812;28;20520;-43
2021/04/04 07:10:35;;;;;;;2.85;1.38;;;19.90;56.40;;;;;;5083503;28;20516;-49
2021/04/04 07:13:34;;;;;;;1.40;1.30;;;19.90;56.40;;;;;;5080615;28;20036;-48
2021/04/04 07:16:02;;;;;;;1.30;1.20;;;20.10;56.20;;;;;;5100280;27;20631;-43
2021/04/04 07:18:35;;;;;;;1.70;1.42;;;20.20;55.40;;;;;;5082271;28;20055;-44
2021/04/04 07:21:26;;;;;;;2.00;1.90;;;20.30;55.20;;;;;;5080591;28;20040;-46
2021/04/04 07:23:52;;;;;;;1.63;1.52;;;20.30;54.50;;;;;;5113236;27;20027;-46
2021/04/04 07:26:39;;;;;;;2.22;1.80;;;20.20;54.60;;;;;;5080858;28;20032;-46
2021/04/04 07:29:15;;;;;;;2.22;1.98;;;20.20;54.60;;;;;;5082079;28;20094;-47
2021/04/04 07:31:55;;;;;;;3.00;1.90;;;20.10;54.50;;;;;;5079643;28;20417;-48
2021/04/04 07:34:26;;;;;;;1.90;1.80;;;20.10;54.30;;;;;;5096419;27;20490;-46
2021/04/04 07:37:14;;;;;;;1.73;1.60;;;20.00;54.30;;;;;;5081280;28;20027;-43
2021/04/04 07:39:45;;;;;;;3.00;2.22;;;20.00;54.40;;;;;;5080286;28;20036;-47
2021/04/04 07:42:31;;;;;;;2.40;2.00;;;20.00;54.30;;;;;;5080673;28;20027;-45
2021/04/04 07:45:02;;;;;;;2.47;2.20;;;20.00;53.90;;;;;;5081226;28;20068;-44
2021/04/04 07:47:47;;;;;;;1.90;1.80;;;20.00;54.80;;;;;;5080403;28;20619;-44
2021/04/04 07:50:15;;;;;;;2.60;2.38;;;20.10;54.30;;;;;;5080831;28;20125;-44
2021/04/04 07:53:00;;;;;;;50.42;4.15;;;20.30;53.60;;;;;;5077401;28;20036;-45
2021/04/04 07:55:37;;;;;;;1.90;1.80;;;20.40;53.40;;;;;;5077922;28;20055;-44
2021/04/04 07:58:22;;;;;;;1.80;1.70;;;20.70;53.00;;;;;;5080636;28;20030;-47
2021/04/04 08:01:18;;;;;;;1.92;1.73;;;20.80;52.70;;;;;;5080390;28;20020;-48
2021/04/04 08:03:58;;;;;;;2.97;2.00;;;20.90;52.20;;;;;;5071308;28;20059;-43
2021/04/04 08:06:28;;;;;;;1.95;1.80;;;21.10;51.90;;;;;;5080183;28;20031;-45
2021/04/04 08:09:12;;;;;;;2.22;2.03;;;21.10;51.90;;;;;;5062722;28;20051;-43
2021/04/04 08:11:45;;;;;;;2.10;1.90;;;20.90;52.40;;;;;;5082862;28;20040;-50
2021/04/04 08:14:14;;;;;;;2.97;1.80;;;20.80;53.00;;;;;;5078652;28;20036;-48
2021/04/04 08:16:57;;;;;;;3.90;1.65;;;20.80;52.90;;;;;;5078393;28;20048;-44
2021/04/04 08:19:23;;;;;;;2.05;1.80;;;20.70;53.20;;;;;;5081276;28;20031;-40
2021/04/04 08:22:01;;;;;;;2.10;1.88;;;20.60;53.80;;;;;;5080996;28;20054;-36
2021/04/04 08:24:45;;;;;;;4.25;2.00;;;20.40;53.80;;;;;;5081900;28;20097;-47
2021/04/04 08:27:24;;;;;;;;;;;20.40;54.10;;;;;;5080115;28;20052;-46
2021/04/04 08:29:52;;;;;;;5.15;2.03;;;20.30;54.30;;;;;;5113581;27;19916;-49
2021/04/04 08:32:43;;;;;;;1.73;1.63;;;20.40;54.50;;;;;;5086279;28;20028;-43
2021/04/04 08:35:09;;;;;;;4.20;1.77;;;20.50;53.90;;;;;;5082408;28;20077;-57
2021/04/04 08:37:38;;;;;;;2.10;1.70;;;20.50;53.50;;;;;;5085213;28;20458;-50
2021/04/04 08:40:07;;;;;;;2.35;1.85;;;20.60;53.50;;;;;;5083899;28;20028;-48
2021/04/04 08:42:32;;;;;;;5.70;2.10;;;20.60;53.50;;;;;;5086987;28;20118;-52
2021/04/04 08:45:05;;;;;;;3.38;2.08;;;20.70;53.20;;;;;;5083354;28;20410;-44
2021/04/04 08:47:31;;;;;;;2.65;2.20;;;20.60;53.60;;;;;;5113483;27;20579;-51
2021/04/04 08:50:00;;;;;;;4.47;2.20;;;20.50;53.70;;;;;;5083615;28;20021;-46
2021/04/04 08:52:55;;;;;;;2.85;1.90;;;20.50;55.20;;;;;;5100677;28;20031;-48
2021/04/04 08:55:22;;;;;;;2.83;1.77;;;20.60;54.40;;;;;;5096855;28;20039;-42
2021/04/04 08:57:49;;;;;;;2.92;2.00;;;20.70;53.90;;;;;;5089067;28;20035;-42
2021/04/04 09:00:16;;;;;;;3.53;1.88;;;20.80;53.90;;;;;;5089683;28;20035;-45
2021/04/04 09:03:09;;;;;;;4.05;1.90;;;20.90;53.90;;;;;;5081033;28;20586;-45
2021/04/04 09:05:36;;;;;;;5.82;1.75;;;20.80;54.70;;;;;;5086656;28;20560;-46
2021/04/04 09:08:03;;;;;;;3.92;1.90;;;21.00;54.10;;;;;;5088052;28;20032;-49
2021/04/04 09:10:29;;;;;;;5.18;2.20;;;21.10;54.00;;;;;;5088680;28;20051;-47
2021/04/04 09:12:56;;;;;;;2.20;1.55;;;21.20;53.10;;;;;;5121934;27;20038;-44
2021/04/04 09:15:21;;;;;;;4.10;1.83;;;21.10;53.00;;;;;;5088188;28;20046;-46
2021/04/04 09:17:55;;;;;;;2.08;1.80;;;21.10;53.00;;;;;;5074022;28;20518;-52
2021/04/04 09:20:41;;;;;;;1.70;1.60;;;21.10;53.70;;;;;;5067994;28;20032;-42
2021/04/04 09:23:06;;;;;;;2.22;1.80;;;21.10;54.10;;;;;;5063992;28;20029;-44
2021/04/04 09:25:33;;;;;;;1.98;1.42;;;21.40;54.40;;;;;;5083839;28;20025;-45
2021/04/04 09:27:59;;;;;;;2.05;1.85;;;21.40;53.50;;;;;;5070009;28;20048;-51
2021/04/04 09:30:34;;;;;;;4.40;2.03;;;21.40;54.10;;;;;;5068820;28;20021;-48
2021/04/04 09:33:04;;;;;;;1.75;1.58;;;21.40;53.50;;;;;;5068232;28;20112;-47
2021/04/04 09:35:30;;;;;;;2.08;1.60;;;21.40;52.80;;;;;;5067252;28;20028;-46
2021/04/04 09:38:15;;;;;;;2.58;2.05;;;21.50;53.00;;;;;;4749631;28;10001318;-50
2021/04/04 09:40:42;;;;;;;4.18;1.70;;;21.40;53.00;;;;;;5064639;28;20244;-48
2021/04/04 09:43:12;;;;;;;1.48;1.38;;;21.40;53.50;;;;;;5065572;28;20060;-50
2021/04/04 09:45:38;;;;;;;3.30;1.55;;;21.40;53.00;;;;;;5065286;28;20058;-53
2021/04/04 09:48:23;;;;;;;1.95;1.73;;;21.40;53.40;;;;;;5065091;28;20455;-48
2021/04/04 09:50:49;;;;;;;2.45;1.45;;;21.40;53.80;;;;;;5061493;28;20125;-46
2021/04/04 09:53:34;;;;;;;2.53;1.90;;;21.30;53.60;;;;;;5060979;28;20020;-51
2021/04/04 09:56:10;;;;;;;1.75;1.65;;;21.30;53.30;;;;;;5059675;28;20035;-53
2021/04/04 09:58:54;;;;;;;2.33;1.35;;;21.30;53.40;;;;;;5061569;28;20035;-52
2021/04/04 10:01:23;;;;;;;1.83;1.70;;;21.30;53.30;;;;;;5063432;28;20033;-53
2021/04/04 10:04:07;;;;;;;1.67;1.58;;;21.30;53.30;;;;;;5066092;28;20528;-49
2021/04/04 10:06:34;;;;;;;2.28;1.80;;;21.30;53.00;;;;;;5066093;28;20099;-48
2021/04/04 10:09:08;;;;;;;1.95;1.50;;;21.30;53.30;;;;;;5063502;28;20494;-52
2021/04/04 10:11:34;;;;;;;1.50;1.40;;;21.40;53.50;;;;;;5060414;28;20031;-51
2021/04/04 10:14:09;;;;;;;3.28;2.25;;;21.40;53.60;;;;;;5064543;28;20036;-45
2021/04/04 10:16:35;;;;;;;2.22;1.48;;;21.50;53.70;;;;;;5063188;28;20051;-46
2021/04/04 10:19:05;;;;;;;4.72;2.45;;;21.50;53.50;;;;;;5060932;28;20629;-50
2021/04/04 10:21:38;;;;;;;3.33;2.15;;;21.50;53.40;;;;;;5064961;28;20598;-52
2021/04/04 10:24:32;;;;;;;2.65;1.85;;;21.60;53.70;;;;;;5063301;28;20024;-46
2021/04/04 10:27:17;;;;;;;1.70;1.58;;;21.60;52.90;;;;;;5061625;28;20029;-49
2021/04/04 10:29:42;;;;;;;2.65;2.15;;;21.70;52.60;;;;;;5060241;28;20518;-50
2021/04/04 10:32:08;;;;;;;2.88;2.30;;;21.70;52.70;;;;;;5062003;28;20044;-49
2021/04/04 10:34:43;;;;;;;3.35;2.33;;;21.70;53.00;;;;;;5065636;28;20021;-48
2021/04/04 10:37:09;;;;;;;5.35;2.85;;;21.70;53.10;;;;;;5065346;28;20106;-45
2021/04/04 10:39:35;;;;;;;3.85;2.67;;;21.70;53.20;;;;;;5071259;28;20479;-49
2021/04/04 10:42:16;;;;;;;3.65;2.30;;;21.70;53.10;;;;;;5070683;28;20103;-49
2021/04/04 10:44:42;;;;;;;3.17;2.00;;;21.70;53.20;;;;;;5066573;28;20033;-52
2021/04/04 10:47:25;;;;;;;3.85;2.13;;;21.70;53.10;;;;;;5066095;28;20032;-48
2021/04/04 10:49:51;;;;;;;4.03;2.30;;;21.70;53.30;;;;;;5064568;28;20028;-51
2021/04/04 10:52:19;;;;;;;2.72;2.35;;;21.70;53.40;;;;;;5065203;28;20279;-52
2021/04/04 10:54:45;;;;;;;2.60;2.00;;;21.70;53.40;;;;;;5069171;28;20024;-47
2021/04/04 10:57:11;;;;;;;2.80;2.22;;;21.70;53.40;;;;;;5061082;28;20103;-50
2021/04/04 10:59:36;;;;;;;2.30;1.85;;;21.70;53.70;;;;;;5062926;28;20028;-48
2021/04/04 11:02:02;;;;;;;2.20;2.00;;;21.90;54.00;;;;;;5081799;28;20653;-49
2021/04/04 11:04:31;;;;;;;2.45;1.80;;;22.00;53.80;;;;;;5068044;28;20036;-48
2021/04/04 11:07:00;;;;;;;2.30;2.10;;;21.90;54.10;;;;;;5069904;28;20028;-51
2021/04/04 11:09:26;;;;;;;4.18;2.40;;;21.90;54.70;;;;;;5067139;28;20789;-51
2021/04/04 11:11:56;;;;;;;5.00;2.63;;;21.90;55.10;;;;;;5064965;28;20033;-53
2021/04/04 11:14:24;;;;;;;3.08;2.55;;;22.00;55.60;;;;;;5066910;28;20039;-50
2021/04/04 11:16:53;;;;;;;3.92;2.20;;;21.90;55.30;;;;;;5064660;28;20102;-50
2021/04/04 11:19:18;;;;;;;3.35;2.42;;;22.00;55.40;;;;;;5068345;28;20493;-53
2021/04/04 11:21:45;;;;;;;4.65;2.58;;;21.90;55.30;;;;;;5065735;28;20023;-50
2021/04/04 11:24:14;;;;;;;5.28;2.28;;;21.90;56.60;;;;;;5064104;28;20041;-51
2021/04/04 11:26:47;;;;;;;3.80;2.17;;;22.00;55.90;;;;;;5067456;28;20074;-51
2021/04/04 11:29:20;;;;;;;4.63;2.70;;;22.00;55.60;;;;;;5065968;28;20446;-44
2021/04/04 11:31:47;;;;;;;5.88;2.70;;;22.00;55.90;;;;;;5062574;28;20039;-50
2021/04/04 11:34:40;;;;;;;7.28;2.08;;;22.10;55.40;;;;;;5067726;28;20131;-50
2021/04/04 11:37:11;;;;;;;4.30;2.30;;;22.00;55.20;;;;;;5067227;28;20044;-50
2021/04/04 11:39:37;;;;;;;3.58;2.47;;;22.00;55.20;;;;;;5069852;28;20036;-48
2021/04/04 11:42:03;;;;;;;10.13;2.75;;;22.00;54.90;;;;;;5067728;28;20029;-52
2021/04/04 11:44:33;;;;;;;6.70;2.63;;;22.00;54.80;;;;;;5070109;28;20498;-50
2021/04/04 11:47:21;;;;;;;4.13;2.30;;;22.10;54.60;;;;;;5068698;28;20052;-52
2021/04/04 11:49:50;;;;;;;4.07;2.30;;;22.00;54.50;;;;;;5068483;28;20032;-50
2021/04/04 11:52:15;;;;;;;4.32;2.30;;;22.00;54.50;;;;;;5067869;28;20021;-52
2021/04/04 11:54:48;;;;;;;4.88;2.70;;;22.00;54.40;;;;;;5066244;28;20050;-51
2021/04/04 11:57:31;;;;;;;3.85;2.17;;;22.00;54.30;;;;;;5067908;28;20521;-53
2021/04/04 12:00:08;;;;;;;3.95;2.33;;;22.00;54.20;;;;;;5069973;28;20024;-51
2021/04/04 12:02:35;;;;;;;3.03;2.42;;;22.00;54.20;;;;;;5070812;28;20025;-52
2021/04/04 12:05:11;;;;;;;4.50;2.50;;;22.00;54.30;;;;;;5068882;28;20509;-47
2021/04/04 12:07:52;;;;;;;6.68;2.67;;;22.00;54.10;;;;;;5069065;28;20184;-53
2021/04/04 12:10:17;;;;;;;4.00;2.28;;;21.90;53.60;;;;;;5065465;28;20017;-51
2021/04/04 12:12:43;;;;;;;5.28;2.60;;;21.90;53.80;;;;;;5070574;28;20036;-50
2021/04/04 12:15:10;;;;;;;8.10;3.42;;;21.90;53.70;;;;;;5068701;28;20512;-49
2021/04/04 12:17:36;;;;;;;9.02;3.97;;;22.00;51.40;;;;;;5067858;28;20533;-49
2021/04/04 12:20:03;;;;;;;8.70;4.68;;;22.00;47.90;;;;;;5070131;28;20025;-50
2021/04/04 12:22:37;;;;;;;15.00;4.53;;;22.00;45.60;;;;;;5067630;28;20020;-49
2021/04/04 12:25:05;;;;;;;9.18;4.53;;;21.90;43.90;;;;;;5068288;28;20046;-52
2021/04/04 12:27:31;;;;;;;10.23;5.22;;;21.80;43.40;;;;;;5068645;28;20098;-48
2021/04/04 12:29:57;;;;;;;6.82;4.35;;;21.80;42.40;;;;;;5068272;28;20510;-49
2021/04/04 12:32:26;;;;;;;8.05;5.13;;;21.70;42.40;;;;;;4713049;28;10000617;-51
2021/04/04 12:34:56;;;;;;;6.43;3.92;;;21.70;42.40;;;;;;5060789;28;20103;-54
2021/04/04 12:37:24;;;;;;;10.23;5.10;;;21.70;41.50;;;;;;5064751;28;20025;-51
2021/04/04 12:39:51;;;;;;;10.35;5.15;;;21.70;41.60;;;;;;5071132;28;20029;-55
2021/04/04 12:42:18;;;;;;;9.68;4.93;;;21.70;41.80;;;;;;5062217;28;20020;-51
2021/04/04 12:44:44;;;;;;;7.20;4.70;;;21.60;40.90;;;;;;5068365;28;20033;-54
2021/04/04 12:47:11;;;;;;;9.10;5.43;;;21.50;41.60;;;;;;5067321;28;20036;-54
2021/04/04 12:49:41;;;;;;;12.18;5.05;;;21.50;41.50;;;;;;5066516;28;20040;-53
2021/04/04 12:52:07;;;;;;;7.80;4.50;;;21.40;41.50;;;;;;5068541;28;20693;-53
2021/04/04 12:54:33;;;;;;;5.75;4.13;;;21.40;42.20;;;;;;5069642;28;20502;-56
2021/04/04 12:56:58;;;;;;;8.07;4.35;;;21.40;41.70;;;;;;5067749;28;20036;-56
2021/04/04 12:59:24;;;;;;;6.05;4.47;;;21.40;41.50;;;;;;5069282;28;20033;-54
2021/04/04 13:01:51;;;;;;;8.57;4.35;;;21.40;41.90;;;;;;5063583;28;20498;-53
2021/04/04 13:04:18;;;;;;;6.28;4.22;;;21.40;41.80;;;;;;5066738;28;20032;-56
2021/04/04 13:06:44;;;;;;;7.97;4.88;;;21.40;42.10;;;;;;5070824;28;20161;-55